Terminal Aerodrome Forecast
Issued by NWS

Home | Current Version | Previous Version | Text Only | Print | Product List | Glossary On
Versions: 1 2 3 4 5 6 7 8 9 10 11 12 13 14 15 16 17 18 19
968
FTUS41 KPHI 220834 AAD
TAFMIV
TAF AMD
KMIV 220834Z 2209/2306 25004KT P6SM VCTS BKN060CB
      TEMPO 2209/2210 4SM -TSRA BR BKN040CB
     FM221000 VRB03KT P6SM BKN080
      TEMPO 2210/2212 5SM BR
     FM221700 22004KT P6SM SCT060 BKN150
     FM222100 VRB06KT P6SM BKN080 PROB30 2223/2305 4SM TSRA
      OVC040CB=

USA.gov is the U.S. government's official web portal to all federal, state and local government web resources and services.